West Lafayette, Indiana
Current Conditions -  °F | °C
As of 9:54 AM on Friday 19 Dec 2014 (Local Time) from KLAF Reporting Station
Haze Haze  
Wind Chill: 24°   Ceiling: 2500
Heat Index: 24°   Visibility: 6mi
Dew Point: 21°   Wind: 0mph
Humidity: 88%   Direction: NA
Pressure: 30.32"   Gusts: NA
Location:  40.43°N, 86.91°W
Report Text: KLAF 191454Z 00000KT 6SM BR OVC025 M04/M06 A3032 RMK AO2 SLP275 T10441061 53010
Loading
Personal Weather Stations






























Interactive Weather Map New forecast layout! Learn more

10-Day Weather Forecast

Advertisements
Track Severe Weather on mobile